CST,Max TemperatureF,Mean TemperatureF,Min TemperatureF,Max Dew PointF,MeanDew PointF,Min DewpointF,Max Humidity, Mean Humidity, Min Humidity, Max Sea Level PressureIn, Mean Sea Level PressureIn, Min Sea Level PressureIn, Max VisibilityMiles, Mean VisibilityMiles, Min VisibilityMiles, Max Wind SpeedMPH, Mean Wind SpeedMPH, Max Gust SpeedMPH,PrecipitationIn, CloudCover, Events, WindDirDegrees
2011-11-1,71,56,41,43,36,32,76,52,29,30.24,30.18,30.13,10,10,10,18,7,22,0.00,0,,177
2011-11-2,71,56,42,52,43,34,76,59,40,30.20,30.10,29.95,10,10,7,21,9,26,0.00,0,,164
2011-11-3,60,52,44,52,38,34,82,64,52,30.09,29.95,29.79,10,10,8,23,19,33,0.30,8,,270
2011-11-4,51,48,46,45,41,37,87,72,66,30.25,30.19,30.11,10,10,4,15,10,17,0.07,8,,2
2011-11-5,62,55,48,46,46,45,93,78,55,30.22,30.14,30.05,10,9,5,10,4,,0.00,4,,123
2011-11-6,62,56,50,52,45,39,87,67,51,30.21,30.15,30.08,10,10,10,18,11,23,0.00,6,,161
2011-11-7,73,63,53,59,54,50,94,78,57,30.24,30.16,30.08,10,10,10,15,9,20,0.00,4,,159
2011-11-8,71,65,59,63,57,52,94,79,64,30.07,29.97,29.85,10,10,2,22,13,28,0.97,6,,161
2011-11-9,60,53,46,61,42,34,100,67,47,30.23,30.06,29.82,10,10,1,25,14,33,0.00,3,,282
2011-11-10,57,46,35,34,26,21,75,50,25,30.31,30.25,30.19,10,10,10,21,9,32,0.00,0,,286
2011-11-11,66,50,33,39,34,30,93,62,30,30.20,30.08,29.98,10,10,10,22,7,28,0.00,0,,185
2011-11-12,60,51,42,50,43,36,76,69,59,30.03,29.96,29.85,10,10,10,29,16,33,0.00,1,,178
2011-11-13,73,65,57,61,58,52,88,76,61,29.83,29.76,29.69,10,10,10,36,23,47,0.00,3,,188
2011-11-14,80,71,62,66,63,61,100,79,54,29.82,29.75,29.70,10,10,6,29,20,36,0.65,2,Thunderstorm,190
2011-11-15,60,58,55,59,56,54,100,96,88,29.88,29.82,29.78,10,8,2,12,6,21,2.23,7,Thunderstorm,89
2011-11-16,57,50,42,57,37,25,100,60,33,30.27,30.01,29.80,10,9,3,20,12,26,0.33,3,,4
2011-11-17,51,43,35,32,26,14,70,51,24,30.43,30.35,30.26,10,9,0,13,7,,0.00,1,,305
2011-11-18,53,44,35,36,30,27,81,62,38,30.33,30.22,30.07,10,10,2,20,10,28,0.00,0,,162
2011-11-19,64,54,44,57,46,34,87,73,62,30.08,30.01,29.93,10,10,10,29,15,34,0.00,7,,175
2011-11-20,69,60,51,66,60,50,100,94,82,30.15,30.08,30.02,10,7,2,15,8,,0.13,8,Thunderstorm,139
2011-11-21,53,50,48,54,50,46,100,96,93,30.18,30.12,30.04,10,7,1,13,7,,0.36,8,Thunderstorm,10
2011-11-22,60,56,51,59,52,46,100,89,77,30.08,29.89,29.77,10,10,2,18,11,18,1.60,8,Thunderstorm,310
2011-11-23,51,50,48,46,45,43,87,84,76,30.34,30.27,30.14,10,10,6,15,7,,0.00,8,,341
2011-11-24,50,48,44,46,45,43,93,88,82,30.39,30.32,30.25,10,10,4,12,6,,0.00,7,,174
2011-11-25,62,52,41,52,47,39,100,85,63,30.24,30.12,30.03,10,7,0,23,8,29,0.00,3,,163
2011-11-26,64,55,44,61,55,43,100,89,77,30.03,29.92,29.84,10,10,4,22,13,28,1.04,7,,181
2011-11-27,44,42,39,43,38,34,100,85,76,30.13,30.06,29.94,10,9,3,20,14,23,0.09,8,,327
2011-11-28,42,38,33,36,33,30,100,84,70,30.09,29.97,29.85,10,9,2,23,14,29,0.11,8,,322
2011-11-29,48,40,33,34,31,28,100,77,54,30.15,29.97,29.80,10,9,2,21,13,28,0.58,4,,313
2011-11-30,42,35,28,30,25,21,87,65,46,30.25,30.19,30.16,10,8,0,10,7,,0.00,0,,283